createdAt,value
2019-01-23T00:00:57.606Z,20.27
2019-01-23T00:03:26.984Z,21.80
2019-01-23T00:05:56.330Z,21.35
2019-01-23T00:08:25.619Z,23.57
2019-01-23T00:10:54.970Z,22.40
2019-01-23T00:13:24.567Z,21.10
2019-01-23T00:15:54.120Z,22.25
2019-01-23T00:18:23.458Z,19.57
2019-01-23T00:20:52.862Z,19.52
2019-01-23T00:23:22.211Z,22.05
2019-01-23T00:25:51.594Z,20.72
2019-01-23T00:28:20.942Z,20.12
2019-01-23T00:30:50.310Z,20.77
2019-01-23T00:33:19.654Z,20.17
2019-01-23T00:35:49.027Z,22.42
2019-01-23T00:38:19.770Z,21.27
2019-01-23T00:40:49.142Z,20.23
2019-01-23T00:43:18.487Z,18.12
2019-01-23T00:45:47.865Z,19.02
2019-01-23T00:48:17.207Z,20.32
2019-01-23T00:50:46.574Z,18.73
2019-01-23T00:53:15.919Z,20.95
2019-01-23T00:55:45.286Z,20.70
2019-01-23T00:58:14.559Z,18.92
2019-01-23T01:00:43.930Z,17.90
2019-01-23T01:03:13.323Z,19.80
2019-01-23T01:05:42.691Z,19.00
2019-01-23T01:08:12.039Z,20.30
2019-01-23T01:10:41.398Z,21.52
2019-01-23T01:13:10.754Z,19.48
2019-01-23T01:15:40.173Z,18.95
2019-01-23T01:18:09.514Z,17.87
2019-01-23T01:20:38.822Z,19.07
2019-01-23T01:23:08.178Z,19.42
2019-01-23T01:25:37.567Z,18.50
2019-01-23T01:28:06.914Z,18.50
2019-01-23T01:30:36.287Z,20.15
2019-01-23T01:33:05.645Z,19.00
2019-01-23T01:35:35.001Z,19.55
2019-01-23T01:38:04.654Z,19.10
2019-01-23T01:40:33.998Z,20.05
2019-01-23T01:43:03.419Z,21.07
2019-01-23T01:45:32.761Z,20.12
2019-01-23T01:48:02.148Z,18.92
2019-01-23T01:50:31.494Z,19.17
2019-01-23T01:53:00.874Z,22.25
2019-01-23T01:55:30.263Z,21.35
2019-01-23T01:58:01.623Z,22.00
2019-01-23T02:00:31.064Z,18.00
2019-01-23T02:03:00.435Z,20.80
2019-01-23T02:05:29.783Z,21.37
2019-01-23T02:07:59.155Z,20.50
2019-01-23T02:10:28.499Z,19.35
2019-01-23T02:12:57.927Z,21.23
2019-01-23T02:15:27.295Z,19.30
2019-01-23T02:17:56.675Z,18.73
2019-01-23T02:20:27.504Z,20.00
2019-01-23T02:22:56.870Z,20.10
2019-01-23T02:25:26.234Z,18.87
2019-01-23T02:27:55.703Z,20.05
2019-01-23T02:30:25.601Z,19.62
2019-01-23T02:32:54.968Z,18.50
2019-01-23T02:35:24.314Z,17.40
2019-01-23T02:37:53.704Z,19.55
2019-01-23T02:40:24.030Z,19.60
2019-01-23T02:42:53.487Z,18.40
2019-01-23T02:45:23.763Z,18.70
2019-01-23T02:47:53.159Z,18.60
2019-01-23T02:50:22.507Z,18.62
2019-01-23T02:52:51.874Z,21.10
2019-01-23T02:55:21.221Z,19.57
2019-01-23T02:57:50.589Z,16.25
2019-01-23T03:00:20.611Z,18.77
2019-01-23T03:02:50.551Z,18.32
2019-01-23T03:05:21.027Z,17.45
2019-01-23T03:07:50.402Z,16.65
2019-01-23T03:10:21.210Z,16.95
2019-01-23T03:12:50.592Z,16.15
2019-01-23T03:15:20.138Z,19.70
2019-01-23T03:17:49.487Z,18.57
2019-01-23T03:20:20.367Z,18.90
2019-01-23T03:22:49.816Z,20.82
2019-01-23T03:25:19.352Z,19.10
2019-01-23T03:27:48.703Z,19.85
2019-01-23T03:30:22.783Z,18.55
2019-01-23T03:32:52.233Z,19.07
2019-01-23T03:35:21.598Z,21.50
2019-01-23T03:37:50.972Z,18.65
2019-01-23T03:40:21.618Z,19.82
2019-01-23T03:42:51.019Z,18.17
2019-01-23T03:45:20.743Z,19.98
2019-01-23T03:47:50.084Z,21.60
2019-01-23T03:50:20.483Z,19.00
2019-01-23T03:52:49.823Z,19.17
2019-01-23T03:55:19.581Z,18.57
2019-01-23T03:57:48.975Z,22.15
2019-01-23T04:00:20.038Z,20.90
2019-01-23T04:02:49.768Z,18.10
2019-01-23T04:05:19.307Z,20.45
2019-01-23T04:07:48.734Z,18.82
2019-01-23T04:10:18.139Z,20.02
2019-01-23T04:12:47.486Z,21.25
2019-01-23T04:15:17.175Z,17.98
2019-01-23T04:17:46.514Z,19.92
2019-01-23T04:20:20.282Z,20.17
2019-01-23T04:22:49.877Z,19.80
2019-01-23T04:25:19.343Z,22.20
2019-01-23T04:27:48.685Z,22.02
2019-01-23T04:30:22.853Z,18.35
2019-01-23T04:32:52.266Z,18.85
2019-01-23T04:35:21.621Z,19.87
2019-01-23T04:37:50.982Z,18.15
2019-01-23T04:40:20.347Z,17.65
2019-01-23T04:42:49.674Z,19.20
2019-01-23T04:45:19.137Z,19.02
2019-01-23T04:47:48.582Z,20.27
2019-01-23T04:50:18.430Z,18.25
2019-01-23T04:53:01.663Z,17.57
2019-01-23T04:55:31.327Z,19.32
2019-01-23T04:58:00.675Z,20.90
2019-01-23T05:00:30.263Z,19.37
2019-01-23T05:02:59.606Z,19.35
2019-01-23T05:05:28.939Z,19.52
2019-01-23T05:07:58.298Z,18.27
2019-01-23T05:10:27.637Z,18.82
2019-01-23T05:12:57.001Z,18.85
2019-01-23T05:15:26.342Z,18.52
2019-01-23T05:17:55.710Z,19.67
2019-01-23T05:20:25.057Z,20.25
2019-01-23T05:22:54.424Z,20.62
2019-01-23T05:25:23.787Z,20.82
2019-01-23T05:27:53.144Z,20.50
2019-01-23T05:30:24.013Z,19.92
2019-01-23T05:32:53.374Z,18.45
2019-01-23T05:35:23.611Z,17.92
2019-01-23T05:37:52.979Z,18.27
2019-01-23T05:40:22.323Z,18.07
2019-01-23T05:42:51.690Z,19.07
2019-01-23T05:45:21.024Z,20.68
2019-01-23T05:47:50.387Z,19.90
2019-01-23T05:50:19.735Z,17.73
2019-01-23T05:52:49.187Z,17.95
2019-01-23T05:55:18.528Z,19.23
2019-01-23T05:57:47.891Z,19.60
2019-01-23T06:00:19.178Z,20.50
2019-01-23T06:02:48.552Z,19.23
2019-01-23T06:05:18.171Z,22.05
2019-01-23T06:07:47.735Z,22.42
2019-01-23T06:10:17.275Z,22.10
2019-01-23T06:12:46.640Z,21.02
2019-01-23T06:15:16.183Z,21.70
2019-01-23T06:17:45.556Z,17.32
2019-01-23T06:20:16.609Z,19.75
2019-01-23T06:22:46.151Z,19.75
2019-01-23T06:25:15.512Z,19.87
2019-01-23T06:27:44.980Z,21.40
2019-01-23T06:30:16.592Z,20.10
2019-01-23T06:32:45.959Z,20.00
2019-01-23T06:35:15.322Z,19.75
2019-01-23T06:37:44.633Z,21.07
2019-01-23T06:40:14.483Z,20.10
2019-01-23T06:42:43.848Z,19.32
2019-01-23T06:45:14.403Z,17.55
2019-01-23T06:47:43.885Z,20.32
2019-01-23T06:50:15.363Z,19.15
2019-01-23T06:52:44.824Z,18.92
2019-01-23T06:55:14.255Z,19.52
2019-01-23T06:57:43.639Z,18.25
2019-01-23T07:00:17.226Z,20.70
2019-01-23T07:02:46.992Z,19.73
2019-01-23T07:05:17.811Z,15.72
2019-01-23T07:07:47.159Z,17.37
2019-01-23T07:10:19.131Z,19.67
2019-01-23T07:12:48.663Z,20.10
2019-01-23T07:15:18.119Z,20.37
2019-01-23T07:17:47.448Z,18.92
2019-01-23T07:20:21.628Z,22.27
2019-01-23T07:22:50.969Z,20.48
2019-01-23T07:25:20.438Z,17.70
2019-01-23T07:27:49.819Z,19.40
2019-01-23T07:30:24.326Z,20.17
2019-01-23T07:32:53.011Z,19.82
2019-01-23T07:35:22.377Z,17.95
2019-01-23T07:37:51.718Z,22.02
2019-01-23T07:40:21.079Z,21.73
2019-01-23T07:42:50.420Z,20.35
2019-01-23T07:45:20.190Z,22.87
2019-01-23T07:47:49.527Z,18.98
2019-01-23T07:50:18.897Z,21.57
2019-01-23T07:52:48.239Z,20.43
2019-01-23T07:55:18.067Z,22.17
2019-01-23T07:57:47.411Z,20.75
2019-01-23T08:00:18.512Z,21.45
2019-01-23T08:02:47.847Z,24.05
2019-01-23T08:05:19.771Z,20.43
2019-01-23T08:07:49.222Z,21.70
2019-01-23T08:10:18.849Z,22.82
2019-01-23T08:12:48.195Z,20.10
2019-01-23T08:15:29.500Z,20.55
2019-01-23T08:17:58.847Z,19.55
2019-01-23T08:20:28.471Z,19.23
2019-01-23T08:22:57.948Z,20.70
2019-01-23T08:25:27.417Z,22.55
2019-01-23T08:27:56.967Z,21.95
2019-01-23T08:30:26.668Z,21.52
2019-01-23T08:32:56.222Z,19.70
2019-01-23T08:35:25.943Z,21.02
2019-01-23T08:37:55.298Z,19.52
2019-01-23T08:40:24.685Z,21.33
2019-01-23T08:42:54.078Z,19.70
2019-01-23T08:45:23.479Z,19.95
2019-01-23T08:47:52.820Z,21.40
2019-01-23T08:50:28.197Z,20.60
2019-01-23T08:52:57.547Z,20.05
2019-01-23T08:55:26.889Z,21.10
2019-01-23T08:57:56.256Z,22.22
2019-01-23T09:00:25.594Z,21.05
2019-01-23T09:02:54.956Z,20.17
2019-01-23T09:05:24.308Z,22.60
2019-01-23T09:07:53.671Z,19.27
2019-01-23T09:10:23.227Z,21.52
2019-01-23T09:12:52.587Z,19.25
2019-01-23T09:15:21.939Z,19.30
2019-01-23T09:17:51.291Z,17.00
2019-01-23T09:20:20.757Z,16.25
2019-01-23T09:22:50.115Z,19.07
2019-01-23T09:25:21.034Z,22.95
2019-01-23T09:27:50.395Z,18.57
2019-01-23T09:30:28.427Z,21.35
2019-01-23T09:33:35.805Z,19.10
2019-01-23T09:36:33.675Z,18.55
2019-01-23T09:39:23.119Z,19.52
2019-01-23T09:42:02.247Z,20.88
2019-01-23T09:45:11.612Z,19.98
2019-01-23T09:47:52.915Z,18.27
2019-01-23T09:51:12.320Z,19.57
2019-01-23T09:53:49.488Z,18.07
2019-01-23T09:56:19.614Z,19.67
2019-01-23T09:58:48.941Z,20.25
2019-01-23T10:01:18.349Z,18.32
2019-01-23T10:03:47.760Z,18.25
2019-01-23T10:06:17.123Z,17.12
2019-01-23T10:08:46.525Z,19.65
2019-01-23T10:11:15.867Z,19.32
2019-01-23T10:13:45.282Z,17.35
2019-01-23T10:16:16.760Z,19.60
2019-01-23T10:18:46.127Z,19.67
2019-01-23T10:21:15.590Z,18.27
2019-01-23T10:23:44.964Z,18.48
2019-01-23T10:26:14.339Z,18.57
2019-01-23T10:28:43.711Z,16.37
2019-01-23T10:31:13.052Z,17.00
2019-01-23T10:33:42.423Z,17.67
2019-01-23T10:36:11.967Z,18.67
2019-01-23T10:38:41.263Z,16.27
2019-01-23T10:41:28.859Z,18.55
2019-01-23T10:44:09.807Z,19.80
2019-01-23T10:46:50.423Z,18.92
2019-01-23T10:49:31.656Z,20.52
2019-01-23T10:52:12.223Z,19.67
2019-01-23T10:54:53.250Z,19.15
2019-01-23T10:57:34.573Z,18.77
2019-01-23T11:00:16.080Z,20.15
2019-01-23T11:02:56.823Z,18.37
2019-01-23T11:05:37.464Z,19.50
2019-01-23T11:08:18.803Z,20.52
2019-01-23T11:10:59.599Z,18.65
2019-01-23T11:13:40.979Z,18.57
2019-01-23T11:16:22.567Z,17.92
2019-01-23T11:19:03.256Z,18.60
2019-01-23T11:21:44.675Z,20.15
2019-01-23T11:24:25.835Z,20.50
2019-01-23T11:27:06.799Z,19.10
2019-01-23T11:29:48.131Z,20.08
2019-01-23T11:32:29.147Z,19.98
2019-01-23T11:35:09.820Z,18.57
2019-01-23T11:37:50.775Z,18.27
2019-01-23T11:40:25.627Z,19.00
2019-01-23T11:42:55.176Z,17.75
2019-01-23T11:45:24.629Z,19.30
2019-01-23T11:47:54.071Z,19.35
2019-01-23T11:50:23.648Z,20.02
2019-01-23T11:52:53.519Z,20.37
2019-01-23T11:55:22.975Z,20.23
2019-01-23T11:57:52.344Z,22.32
2019-01-23T12:00:22.731Z,19.82
2019-01-23T12:02:52.068Z,20.23
2019-01-23T12:05:22.363Z,22.22
2019-01-23T12:07:51.832Z,20.20
2019-01-23T12:10:22.692Z,21.57
2019-01-23T12:12:52.032Z,19.50
2019-01-23T12:15:22.832Z,19.57
2019-01-23T12:17:52.361Z,20.05
2019-01-23T12:20:21.912Z,22.32
2019-01-23T12:22:51.687Z,21.12
2019-01-23T12:25:21.056Z,23.57
2019-01-23T12:27:50.423Z,19.52
2019-01-23T12:30:22.596Z,21.52
2019-01-23T12:32:51.970Z,22.62
2019-01-23T12:35:21.311Z,22.10
2019-01-23T12:37:50.678Z,19.15
2019-01-23T12:40:20.028Z,23.25
2019-01-23T12:42:49.409Z,21.37
2019-01-23T12:45:21.028Z,21.05
2019-01-23T12:47:50.399Z,21.25
2019-01-23T12:50:22.491Z,23.00
2019-01-23T12:52:51.959Z,17.60
2019-01-23T12:55:21.319Z,20.30
2019-01-23T12:57:50.681Z,20.15
2019-01-23T13:00:22.789Z,20.57
2019-01-23T13:02:52.343Z,20.82
2019-01-23T13:05:22.591Z,19.42
2019-01-23T13:07:52.108Z,18.17
2019-01-23T13:10:21.722Z,20.30
2019-01-23T13:12:51.191Z,22.13
2019-01-23T13:15:22.345Z,18.15
2019-01-23T13:17:51.905Z,20.37
2019-01-23T13:20:22.013Z,21.10
2019-01-23T13:22:51.348Z,20.40
2019-01-23T13:25:22.843Z,20.48
2019-01-23T13:27:52.532Z,19.07
2019-01-23T13:30:23.654Z,18.98
2019-01-23T13:32:53.007Z,20.12
2019-01-23T13:35:27.615Z,21.35
2019-01-23T13:37:56.986Z,21.57
2019-01-23T13:40:28.891Z,20.17
2019-01-23T13:42:58.260Z,21.95
2019-01-23T13:45:27.632Z,20.12
2019-01-23T13:47:57.080Z,20.90
2019-01-23T13:50:26.437Z,20.52
2019-01-23T13:52:55.782Z,20.20
2019-01-23T13:55:25.246Z,22.55
2019-01-23T13:57:54.595Z,20.40
2019-01-23T14:00:26.995Z,21.02
2019-01-23T14:02:56.409Z,22.80
2019-01-23T14:05:25.775Z,21.77
2019-01-23T14:07:55.122Z,24.57
2019-01-23T14:10:24.483Z,25.23
2019-01-23T14:12:54.240Z,20.80
2019-01-23T14:15:26.999Z,22.35
2019-01-23T14:17:56.390Z,22.55
2019-01-23T14:20:25.757Z,20.80
2019-01-23T14:22:55.098Z,23.85
2019-01-23T14:25:24.535Z,25.45
2019-01-23T14:27:53.879Z,22.98
2019-01-23T14:30:37.830Z,21.60
2019-01-23T14:33:07.192Z,21.73
2019-01-23T14:35:38.044Z,22.60
2019-01-23T14:38:07.388Z,24.23
2019-01-23T14:40:36.743Z,21.42
2019-01-23T14:43:06.816Z,25.37
2019-01-23T14:45:36.218Z,24.80
2019-01-23T14:48:05.801Z,22.13
2019-01-23T14:50:35.151Z,22.35
2019-01-23T14:53:05.011Z,25.17
2019-01-23T14:55:34.379Z,22.75
2019-01-23T14:58:03.927Z,22.58
2019-01-23T15:00:33.551Z,24.27
2019-01-23T15:03:02.886Z,23.73
2019-01-23T15:05:32.262Z,22.13
2019-01-23T15:08:01.611Z,22.90
2019-01-23T15:10:31.783Z,22.40
2019-01-23T15:13:01.448Z,24.07
2019-01-23T15:15:30.807Z,24.60
2019-01-23T15:18:00.206Z,24.92
2019-01-23T15:20:37.832Z,24.63
2019-01-23T15:23:07.270Z,24.12
2019-01-23T15:25:36.654Z,22.22
2019-01-23T15:28:06.194Z,25.20
2019-01-23T15:30:35.575Z,24.27
2019-01-23T15:33:05.223Z,22.05
2019-01-23T15:35:34.683Z,23.22
2019-01-23T15:38:04.043Z,23.62
2019-01-23T15:40:35.779Z,24.77
2019-01-23T15:43:05.331Z,23.52
2019-01-23T15:45:34.701Z,23.92
2019-01-23T15:48:04.143Z,23.77
2019-01-23T15:50:33.612Z,25.00
2019-01-23T15:53:02.950Z,23.38
2019-01-23T15:55:32.821Z,28.00
2019-01-23T15:58:02.155Z,22.50
2019-01-23T16:00:32.802Z,24.95
2019-01-23T16:03:02.139Z,23.92
2019-01-23T16:05:31.482Z,22.37
2019-01-23T16:08:00.847Z,23.18
2019-01-23T16:10:31.104Z,25.55
2019-01-23T16:13:00.470Z,21.12
2019-01-23T16:15:30.593Z,24.50
2019-01-23T16:17:59.955Z,22.22
2019-01-23T16:20:29.600Z,25.45
2019-01-23T16:22:58.950Z,22.85
2019-01-23T16:25:28.316Z,23.80
2019-01-23T16:27:57.687Z,23.30
2019-01-23T16:30:31.411Z,24.10
2019-01-23T16:33:00.788Z,22.65
2019-01-23T16:35:30.183Z,21.52
2019-01-23T16:37:59.854Z,24.52
2019-01-23T16:40:29.195Z,26.40
2019-01-23T16:42:58.566Z,25.37
2019-01-23T16:45:28.012Z,22.13
2019-01-23T16:47:57.379Z,25.80
2019-01-23T16:50:27.036Z,23.42
2019-01-23T16:52:56.496Z,23.95
2019-01-23T16:55:25.830Z,23.98
2019-01-23T16:57:55.698Z,24.55
2019-01-23T17:00:25.827Z,25.88
2019-01-23T17:02:55.191Z,23.15
2019-01-23T17:05:27.446Z,25.90
2019-01-23T17:07:57.590Z,26.02
2019-01-23T17:10:27.187Z,24.67
2019-01-23T17:12:56.667Z,25.70
2019-01-23T17:15:26.019Z,26.50
2019-01-23T17:17:55.393Z,27.73
2019-01-23T17:20:42.299Z,25.25
2019-01-23T17:23:11.667Z,25.02
2019-01-23T17:25:41.055Z,26.17
2019-01-23T17:28:12.091Z,24.92
2019-01-23T17:30:41.473Z,25.20
2019-01-23T17:33:10.835Z,25.70
2019-01-23T17:35:40.190Z,24.98
2019-01-23T17:38:09.551Z,27.30
2019-01-23T17:40:38.899Z,25.57
2019-01-23T17:43:08.647Z,27.50
2019-01-23T17:45:39.219Z,23.22
2019-01-23T17:48:10.793Z,24.85
2019-01-23T17:50:40.370Z,23.10
2019-01-23T17:53:09.703Z,23.32
2019-01-23T17:55:39.959Z,25.95
2019-01-23T17:58:11.443Z,24.00
2019-01-23T18:00:44.790Z,24.45
2019-01-23T18:03:14.132Z,25.00
2019-01-23T18:05:43.512Z,26.40
2019-01-23T18:08:12.856Z,25.77
2019-01-23T18:10:42.223Z,25.35
2019-01-23T18:13:11.572Z,25.23
2019-01-23T18:15:40.992Z,24.98
2019-01-23T18:18:10.495Z,25.50
2019-01-23T18:20:40.059Z,28.17
2019-01-23T18:23:09.433Z,26.10
2019-01-23T18:25:38.858Z,25.65
2019-01-23T18:28:08.214Z,26.10
2019-01-23T18:30:44.871Z,25.60
2019-01-23T18:33:15.939Z,26.50
2019-01-23T18:36:41.467Z,27.22
2019-01-23T18:39:54.589Z,23.62
2019-01-23T18:43:05.217Z,22.02
2019-01-23T18:46:11.216Z,23.57
2019-01-23T18:49:24.358Z,25.75
2019-01-23T18:52:13.489Z,23.90
2019-01-23T18:54:42.958Z,24.65
2019-01-23T18:57:15.635Z,26.73
2019-01-23T18:59:44.986Z,25.82
2019-01-23T19:02:14.342Z,26.40
2019-01-23T19:04:43.715Z,26.50
2019-01-23T19:07:13.087Z,24.82
2019-01-23T19:09:42.426Z,25.85
2019-01-23T19:12:11.828Z,24.23
2019-01-23T19:14:41.167Z,23.32
2019-01-23T19:17:10.541Z,25.23
2019-01-23T19:19:39.875Z,28.25
2019-01-23T19:22:09.239Z,24.98
2019-01-23T19:24:38.602Z,22.58
2019-01-23T19:27:07.960Z,23.45
2019-01-23T19:29:37.295Z,22.45
2019-01-23T19:32:06.664Z,25.05
2019-01-23T19:34:36.056Z,25.35
2019-01-23T19:37:05.644Z,26.82
2019-01-23T19:39:34.992Z,24.77
2019-01-23T19:42:04.463Z,24.40
2019-01-23T19:44:33.815Z,23.83
2019-01-23T19:47:03.215Z,23.02
2019-01-23T19:49:32.577Z,23.45
2019-01-23T19:52:01.924Z,22.62
2019-01-23T19:54:31.260Z,20.68
2019-01-23T19:57:00.692Z,23.27
2019-01-23T19:59:30.023Z,24.27
2019-01-23T20:01:59.391Z,22.50
2019-01-23T20:04:28.739Z,21.37
2019-01-23T20:06:58.117Z,20.90
2019-01-23T20:09:27.380Z,20.52
2019-01-23T20:11:56.811Z,22.17
2019-01-23T20:14:26.159Z,20.32
2019-01-23T20:16:55.511Z,21.27
2019-01-23T20:19:24.860Z,20.80
2019-01-23T20:21:54.199Z,23.25
2019-01-23T20:24:23.564Z,17.62
2019-01-23T20:26:52.923Z,19.15
2019-01-23T20:29:23.755Z,17.62
2019-01-23T20:31:53.103Z,16.30
2019-01-23T20:34:22.523Z,14.20
2019-01-23T20:36:51.855Z,18.35
2019-01-23T20:39:21.216Z,14.93
2019-01-23T20:41:50.563Z,15.80
2019-01-23T20:44:19.966Z,17.37
2019-01-23T20:46:49.294Z,20.12
2019-01-23T20:49:18.763Z,18.80
2019-01-23T20:51:48.099Z,17.05
2019-01-23T20:54:17.471Z,16.65
2019-01-23T20:56:46.812Z,15.32
2019-01-23T20:59:16.180Z,19.37
2019-01-23T21:01:45.717Z,17.27
2019-01-23T21:04:15.078Z,15.55
2019-01-23T21:06:44.444Z,16.32
2019-01-23T21:09:13.818Z,16.05
2019-01-23T21:11:43.192Z,16.42
2019-01-23T21:14:12.544Z,20.27
2019-01-23T21:16:41.911Z,16.48
2019-01-23T21:19:11.307Z,15.65
2019-01-23T21:21:40.684Z,17.55
2019-01-23T21:24:10.034Z,16.27
2019-01-23T21:26:39.423Z,18.12
2019-01-23T21:29:08.788Z,17.73
2019-01-23T21:31:38.132Z,23.85
2019-01-23T21:34:07.495Z,19.07
2019-01-23T21:36:36.840Z,21.25
2019-01-23T21:39:08.571Z,19.32
2019-01-23T21:41:37.996Z,15.90
2019-01-23T21:44:07.347Z,21.12
2019-01-23T21:46:36.699Z,18.10
2019-01-23T21:49:06.066Z,17.40
2019-01-23T21:51:35.401Z,18.70
2019-01-23T21:54:05.067Z,19.55
2019-01-23T21:56:34.406Z,22.90
2019-01-23T21:59:03.769Z,21.37
2019-01-23T22:01:33.115Z,23.18
2019-01-23T22:04:02.483Z,23.62
2019-01-23T22:06:31.831Z,22.95
2019-01-23T22:09:01.223Z,24.37
2019-01-23T22:11:30.569Z,23.10
2019-01-23T22:13:59.910Z,24.55
2019-01-23T22:16:29.271Z,25.57
2019-01-23T22:18:58.619Z,27.13
2019-01-23T22:21:27.985Z,26.00
2019-01-23T22:23:57.255Z,24.77
2019-01-23T22:26:26.642Z,21.50
2019-01-23T22:28:55.992Z,26.52
2019-01-23T22:31:25.360Z,26.25
2019-01-23T22:33:56.339Z,25.02
2019-01-23T22:36:25.711Z,26.05
2019-01-23T22:38:55.063Z,25.27
2019-01-23T22:41:24.431Z,25.60
2019-01-23T22:43:53.783Z,27.07
2019-01-23T22:46:23.142Z,24.30
2019-01-23T22:48:52.487Z,27.67
2019-01-23T22:51:21.786Z,28.02
2019-01-23T22:53:51.127Z,25.88
2019-01-23T22:56:20.495Z,26.75
2019-01-23T22:58:49.839Z,26.82
2019-01-23T23:01:27.662Z,26.90
2019-01-23T23:04:03.193Z,25.40
2019-01-23T23:06:28.471Z,26.68
2019-01-23T23:08:57.875Z,28.65
2019-01-23T23:11:27.235Z,27.52
2019-01-23T23:13:56.763Z,25.82
2019-01-23T23:16:26.131Z,27.17
2019-01-23T23:18:55.490Z,25.48
2019-01-23T23:21:24.856Z,25.05
2019-01-23T23:23:54.222Z,26.30
2019-01-23T23:26:23.598Z,26.07
2019-01-23T23:28:52.866Z,27.77
2019-01-23T23:31:22.235Z,23.50
2019-01-23T23:33:51.587Z,23.25
2019-01-23T23:36:20.942Z,26.17
2019-01-23T23:38:50.287Z,24.77
2019-01-23T23:41:19.651Z,24.98
2019-01-23T23:43:49.017Z,23.15
2019-01-23T23:46:18.394Z,24.60
2019-01-23T23:48:47.765Z,23.45
2019-01-23T23:51:17.103Z,22.40
2019-01-23T23:53:46.500Z,25.27
2019-01-23T23:56:15.848Z,25.08
2019-01-23T23:58:45.232Z,21.80
